sensor_id;sensor_type;location;lat;lon;timestamp;temperature;humidity
5870;DHT22;2961;47.702;9.410;2023-06-04T00:01:30;16.90;89.80
5870;DHT22;2961;47.702;9.410;2023-06-04T00:03:56;16.80;89.70
5870;DHT22;2961;47.702;9.410;2023-06-04T00:06:23;16.80;90.00
5870;DHT22;2961;47.702;9.410;2023-06-04T00:08:50;16.80;90.00
5870;DHT22;2961;47.702;9.410;2023-06-04T00:11:17;16.80;90.20
5870;DHT22;2961;47.702;9.410;2023-06-04T00:13:45;16.70;90.20
5870;DHT22;2961;47.702;9.410;2023-06-04T00:16:12;16.70;90.40
5870;DHT22;2961;47.702;9.410;2023-06-04T00:18:39;16.60;90.50
5870;DHT22;2961;47.702;9.410;2023-06-04T00:21:06;16.60;90.80
5870;DHT22;2961;47.702;9.410;2023-06-04T00:23:33;16.60;90.80
5870;DHT22;2961;47.702;9.410;2023-06-04T00:25:59;16.60;90.60
5870;DHT22;2961;47.702;9.410;2023-06-04T00:28:26;16.70;90.80
5870;DHT22;2961;47.702;9.410;2023-06-04T00:30:54;16.60;90.80
5870;DHT22;2961;47.702;9.410;2023-06-04T00:33:21;16.60;90.80
5870;DHT22;2961;47.702;9.410;2023-06-04T00:35:48;16.60;91.20
5870;DHT22;2961;47.702;9.410;2023-06-04T00:38:15;16.60;91.10
5870;DHT22;2961;47.702;9.410;2023-06-04T00:40:41;16.60;91.20
5870;DHT22;2961;47.702;9.410;2023-06-04T00:43:08;16.60;91.20
5870;DHT22;2961;47.702;9.410;2023-06-04T00:45:35;16.60;91.20
5870;DHT22;2961;47.702;9.410;2023-06-04T00:48:04;16.60;91.20
5870;DHT22;2961;47.702;9.410;2023-06-04T00:50:31;16.60;91.30
5870;DHT22;2961;47.702;9.410;2023-06-04T00:52:58;16.50;91.70
5870;DHT22;2961;47.702;9.410;2023-06-04T00:55:25;16.50;91.40
5870;DHT22;2961;47.702;9.410;2023-06-04T00:57:52;16.50;91.50
5870;DHT22;2961;47.702;9.410;2023-06-04T01:00:19;16.40;91.80
5870;DHT22;2961;47.702;9.410;2023-06-04T01:02:47;16.40;91.90
5870;DHT22;2961;47.702;9.410;2023-06-04T01:05:26;16.40;92.00
5870;DHT22;2961;47.702;9.410;2023-06-04T01:07:56;16.30;92.30
5870;DHT22;2961;47.702;9.410;2023-06-04T01:10:23;16.30;92.20
5870;DHT22;2961;47.702;9.410;2023-06-04T01:12:50;16.20;92.50
5870;DHT22;2961;47.702;9.410;2023-06-04T01:15:17;16.10;92.80
5870;DHT22;2961;47.702;9.410;2023-06-04T01:17:47;16.10;93.00
5870;DHT22;2961;47.702;9.410;2023-06-04T01:20:27;16.10;92.90
5870;DHT22;2961;47.702;9.410;2023-06-04T01:23:27;16.10;93.10
5870;DHT22;2961;47.702;9.410;2023-06-04T01:25:59;16.10;93.20
5870;DHT22;2961;47.702;9.410;2023-06-04T01:28:28;16.00;93.40
5870;DHT22;2961;47.702;9.410;2023-06-04T01:30:56;16.00;93.50
5870;DHT22;2961;47.702;9.410;2023-06-04T01:33:25;16.00;93.70
5870;DHT22;2961;47.702;9.410;2023-06-04T01:35:53;15.90;93.80
5870;DHT22;2961;47.702;9.410;2023-06-04T01:38:20;15.80;94.20
5870;DHT22;2961;47.702;9.410;2023-06-04T01:40:47;15.80;94.40
5870;DHT22;2961;47.702;9.410;2023-06-04T01:43:14;15.80;94.70
5870;DHT22;2961;47.702;9.410;2023-06-04T01:45:41;15.80;94.50
5870;DHT22;2961;47.702;9.410;2023-06-04T01:48:08;15.80;94.90
5870;DHT22;2961;47.702;9.410;2023-06-04T01:50:34;15.80;94.80
5870;DHT22;2961;47.702;9.410;2023-06-04T01:53:02;15.80;95.00
5870;DHT22;2961;47.702;9.410;2023-06-04T01:55:29;15.70;94.90
5870;DHT22;2961;47.702;9.410;2023-06-04T01:57:58;15.70;95.30
5870;DHT22;2961;47.702;9.410;2023-06-04T02:00:25;15.70;95.10
5870;DHT22;2961;47.702;9.410;2023-06-04T02:02:52;15.60;95.80
5870;DHT22;2961;47.702;9.410;2023-06-04T02:05:21;15.50;95.60
5870;DHT22;2961;47.702;9.410;2023-06-04T02:07:48;15.50;95.80
5870;DHT22;2961;47.702;9.410;2023-06-04T02:10:17;15.50;95.90
5870;DHT22;2961;47.702;9.410;2023-06-04T02:12:53;15.50;96.10
5870;DHT22;2961;47.702;9.410;2023-06-04T02:15:22;15.40;96.40
5870;DHT22;2961;47.702;9.410;2023-06-04T02:17:49;15.40;96.70
5870;DHT22;2961;47.702;9.410;2023-06-04T02:20:16;15.40;96.50
5870;DHT22;2961;47.702;9.410;2023-06-04T02:22:43;15.50;96.70
5870;DHT22;2961;47.702;9.410;2023-06-04T02:25:10;15.50;96.60
5870;DHT22;2961;47.702;9.410;2023-06-04T02:27:38;15.50;96.70
5870;DHT22;2961;47.702;9.410;2023-06-04T02:30:06;15.50;96.70
5870;DHT22;2961;47.702;9.410;2023-06-04T02:32:33;15.60;96.80
5870;DHT22;2961;47.702;9.410;2023-06-04T02:35:01;15.50;96.70
5870;DHT22;2961;47.702;9.410;2023-06-04T02:37:28;15.50;96.90
5870;DHT22;2961;47.702;9.410;2023-06-04T02:39:55;15.60;97.10
5870;DHT22;2961;47.702;9.410;2023-06-04T02:42:22;15.60;96.80
5870;DHT22;2961;47.702;9.410;2023-06-04T02:44:50;15.70;96.90
5870;DHT22;2961;47.702;9.410;2023-06-04T02:47:17;15.70;96.80
5870;DHT22;2961;47.702;9.410;2023-06-04T02:49:45;15.70;96.80
5870;DHT22;2961;47.702;9.410;2023-06-04T02:52:12;15.70;96.60
5870;DHT22;2961;47.702;9.410;2023-06-04T02:54:38;15.70;96.40
5870;DHT22;2961;47.702;9.410;2023-06-04T02:57:06;15.70;96.40
5870;DHT22;2961;47.702;9.410;2023-06-04T02:59:34;15.70;96.40
5870;DHT22;2961;47.702;9.410;2023-06-04T03:02:02;15.70;96.30
5870;DHT22;2961;47.702;9.410;2023-06-04T03:04:29;15.70;96.50
5870;DHT22;2961;47.702;9.410;2023-06-04T03:07:00;15.70;96.40
5870;DHT22;2961;47.702;9.410;2023-06-04T03:09:28;15.70;96.50
5870;DHT22;2961;47.702;9.410;2023-06-04T03:11:59;15.70;96.30
5870;DHT22;2961;47.702;9.410;2023-06-04T03:14:26;15.70;96.40
5870;DHT22;2961;47.702;9.410;2023-06-04T03:16:58;15.70;96.80
5870;DHT22;2961;47.702;9.410;2023-06-04T03:19:27;15.60;97.00
5870;DHT22;2961;47.702;9.410;2023-06-04T03:21:54;15.60;97.10
5870;DHT22;2961;47.702;9.410;2023-06-04T03:24:22;15.50;97.60
5870;DHT22;2961;47.702;9.410;2023-06-04T03:26:49;15.60;97.70
5870;DHT22;2961;47.702;9.410;2023-06-04T03:29:15;15.50;97.50
5870;DHT22;2961;47.702;9.410;2023-06-04T03:31:44;15.50;97.80
5870;DHT22;2961;47.702;9.410;2023-06-04T03:34:11;15.50;97.60
5870;DHT22;2961;47.702;9.410;2023-06-04T03:36:39;15.50;97.70
5870;DHT22;2961;47.702;9.410;2023-06-04T03:39:06;15.60;97.60
5870;DHT22;2961;47.702;9.410;2023-06-04T03:41:33;15.50;97.80
5870;DHT22;2961;47.702;9.410;2023-06-04T03:43:59;15.50;97.90
5870;DHT22;2961;47.702;9.410;2023-06-04T03:46:26;15.50;98.00
5870;DHT22;2961;47.702;9.410;2023-06-04T03:48:57;15.50;98.10
5870;DHT22;2961;47.702;9.410;2023-06-04T03:51:23;15.50;98.20
5870;DHT22;2961;47.702;9.410;2023-06-04T03:53:51;15.50;98.20
5870;DHT22;2961;47.702;9.410;2023-06-04T03:56:18;15.50;98.10
5870;DHT22;2961;47.702;9.410;2023-06-04T03:58:47;15.50;98.50
5870;DHT22;2961;47.702;9.410;2023-06-04T04:01:13;15.40;98.30
5870;DHT22;2961;47.702;9.410;2023-06-04T04:03:41;15.50;98.40
5870;DHT22;2961;47.702;9.410;2023-06-04T04:06:09;15.50;98.70
5870;DHT22;2961;47.702;9.410;2023-06-04T04:08:36;15.40;98.60
5870;DHT22;2961;47.702;9.410;2023-06-04T04:11:09;15.50;99.00
5870;DHT22;2961;47.702;9.410;2023-06-04T04:13:35;15.50;99.00
5870;DHT22;2961;47.702;9.410;2023-06-04T04:16:02;15.50;99.10
5870;DHT22;2961;47.702;9.410;2023-06-04T04:18:32;15.60;99.10
5870;DHT22;2961;47.702;9.410;2023-06-04T04:20:59;15.60;98.80
5870;DHT22;2961;47.702;9.410;2023-06-04T04:23:26;15.60;98.90
5870;DHT22;2961;47.702;9.410;2023-06-04T04:25:53;15.70;99.20
5870;DHT22;2961;47.702;9.410;2023-06-04T04:28:23;15.70;99.90
5870;DHT22;2961;47.702;9.410;2023-06-04T04:30:49;15.80;98.90
5870;DHT22;2961;47.702;9.410;2023-06-04T04:33:16;15.80;98.90
5870;DHT22;2961;47.702;9.410;2023-06-04T04:35:43;15.80;98.50
5870;DHT22;2961;47.702;9.410;2023-06-04T04:38:10;16.10;98.20
5870;DHT22;2961;47.702;9.410;2023-06-04T04:40:38;16.40;97.40
5870;DHT22;2961;47.702;9.410;2023-06-04T04:43:05;16.60;97.20
5870;DHT22;2961;47.702;9.410;2023-06-04T04:45:33;16.60;96.20
5870;DHT22;2961;47.702;9.410;2023-06-04T04:48:00;16.50;96.50
5870;DHT22;2961;47.702;9.410;2023-06-04T04:50:26;16.70;96.40
5870;DHT22;2961;47.702;9.410;2023-06-04T04:52:53;16.60;96.60
5870;DHT22;2961;47.702;9.410;2023-06-04T04:55:20;16.60;96.20
5870;DHT22;2961;47.702;9.410;2023-06-04T04:57:47;16.50;96.80
5870;DHT22;2961;47.702;9.410;2023-06-04T05:00:14;16.40;97.00
5870;DHT22;2961;47.702;9.410;2023-06-04T05:02:43;16.50;97.20
5870;DHT22;2961;47.702;9.410;2023-06-04T05:05:09;16.50;97.10
5870;DHT22;2961;47.702;9.410;2023-06-04T05:07:37;16.60;97.30
5870;DHT22;2961;47.702;9.410;2023-06-04T05:10:05;16.90;96.40
5870;DHT22;2961;47.702;9.410;2023-06-04T05:12:32;17.00;95.90
5870;DHT22;2961;47.702;9.410;2023-06-04T05:14:59;17.00;96.10
5870;DHT22;2961;47.702;9.410;2023-06-04T05:17:26;16.90;96.00
5870;DHT22;2961;47.702;9.410;2023-06-04T05:19:57;17.20;95.90
5870;DHT22;2961;47.702;9.410;2023-06-04T05:22:37;17.90;94.80
5870;DHT22;2961;47.702;9.410;2023-06-04T05:25:04;19.10;93.10
5870;DHT22;2961;47.702;9.410;2023-06-04T05:27:31;20.50;91.90
5870;DHT22;2961;47.702;9.410;2023-06-04T05:29:58;22.00;88.90
5870;DHT22;2961;47.702;9.410;2023-06-04T05:32:26;23.40;81.00
5870;DHT22;2961;47.702;9.410;2023-06-04T05:34:54;23.70;78.10
5870;DHT22;2961;47.702;9.410;2023-06-04T05:37:24;23.20;76.30
5870;DHT22;2961;47.702;9.410;2023-06-04T05:39:52;22.50;78.20
5870;DHT22;2961;47.702;9.410;2023-06-04T05:42:19;22.30;79.50
5870;DHT22;2961;47.702;9.410;2023-06-04T05:44:46;21.70;80.20
5870;DHT22;2961;47.702;9.410;2023-06-04T05:47:14;21.10;81.90
5870;DHT22;2961;47.702;9.410;2023-06-04T05:49:42;20.20;83.80
5870;DHT22;2961;47.702;9.410;2023-06-04T05:52:08;19.40;86.80
5870;DHT22;2961;47.702;9.410;2023-06-04T05:54:37;18.80;89.20
5870;DHT22;2961;47.702;9.410;2023-06-04T05:57:04;18.40;90.40
5870;DHT22;2961;47.702;9.410;2023-06-04T05:59:30;18.20;90.90
5870;DHT22;2961;47.702;9.410;2023-06-04T06:01:57;18.30;91.60
5870;DHT22;2961;47.702;9.410;2023-06-04T06:04:24;19.30;90.60
5870;DHT22;2961;47.702;9.410;2023-06-04T06:06:51;20.60;86.30
5870;DHT22;2961;47.702;9.410;2023-06-04T06:09:19;21.70;82.10
5870;DHT22;2961;47.702;9.410;2023-06-04T06:11:47;22.30;79.70
5870;DHT22;2961;47.702;9.410;2023-06-04T06:14:14;23.00;77.90
5870;DHT22;2961;47.702;9.410;2023-06-04T06:16:41;23.40;76.80
5870;DHT22;2961;47.702;9.410;2023-06-04T06:19:08;23.70;75.00
5870;DHT22;2961;47.702;9.410;2023-06-04T06:21:36;24.00;74.40
5870;DHT22;2961;47.702;9.410;2023-06-04T06:24:03;24.30;74.80
5870;DHT22;2961;47.702;9.410;2023-06-04T06:26:30;24.70;72.40
5870;DHT22;2961;47.702;9.410;2023-06-04T06:28:58;25.10;71.60
5870;DHT22;2961;47.702;9.410;2023-06-04T06:31:25;25.60;71.30
5870;DHT22;2961;47.702;9.410;2023-06-04T06:33:52;25.90;70.30
5870;DHT22;2961;47.702;9.410;2023-06-04T06:36:19;26.40;69.90
5870;DHT22;2961;47.702;9.410;2023-06-04T06:38:46;27.10;66.60
5870;DHT22;2961;47.702;9.410;2023-06-04T06:41:13;27.90;65.50
5870;DHT22;2961;47.702;9.410;2023-06-04T06:43:40;28.00;63.20
5870;DHT22;2961;47.702;9.410;2023-06-04T06:46:08;28.40;62.60
5870;DHT22;2961;47.702;9.410;2023-06-04T06:48:34;29.00;60.50
5870;DHT22;2961;47.702;9.410;2023-06-04T06:51:01;29.30;59.10
5870;DHT22;2961;47.702;9.410;2023-06-04T06:53:28;29.20;60.30
5870;DHT22;2961;47.702;9.410;2023-06-04T06:55:55;29.70;59.40
5870;DHT22;2961;47.702;9.410;2023-06-04T06:58:22;29.90;56.20
5870;DHT22;2961;47.702;9.410;2023-06-04T07:00:49;30.10;57.10
5870;DHT22;2961;47.702;9.410;2023-06-04T07:03:17;30.10;55.90
5870;DHT22;2961;47.702;9.410;2023-06-04T07:05:44;30.40;56.00
5870;DHT22;2961;47.702;9.410;2023-06-04T07:08:11;30.70;54.80
5870;DHT22;2961;47.702;9.410;2023-06-04T07:10:38;30.70;54.90
5870;DHT22;2961;47.702;9.410;2023-06-04T07:13:04;30.40;54.60
5870;DHT22;2961;47.702;9.410;2023-06-04T07:15:31;30.50;54.50
5870;DHT22;2961;47.702;9.410;2023-06-04T07:17:58;30.00;55.30
5870;DHT22;2961;47.702;9.410;2023-06-04T07:20:26;29.50;55.60
5870;DHT22;2961;47.702;9.410;2023-06-04T07:22:53;29.20;55.70
5870;DHT22;2961;47.702;9.410;2023-06-04T07:25:19;28.60;56.80
5870;DHT22;2961;47.702;9.410;2023-06-04T07:27:48;28.80;56.70
5870;DHT22;2961;47.702;9.410;2023-06-04T07:30:16;29.50;56.10
5870;DHT22;2961;47.702;9.410;2023-06-04T07:32:46;30.00;55.60
5870;DHT22;2961;47.702;9.410;2023-06-04T07:35:13;31.10;53.50
5870;DHT22;2961;47.702;9.410;2023-06-04T07:37:41;31.50;52.30
5870;DHT22;2961;47.702;9.410;2023-06-04T07:40:10;31.90;52.80
5870;DHT22;2961;47.702;9.410;2023-06-04T07:42:37;31.90;51.50
5870;DHT22;2961;47.702;9.410;2023-06-04T07:45:04;31.90;51.90
5870;DHT22;2961;47.702;9.410;2023-06-04T07:47:31;32.40;49.80
5870;DHT22;2961;47.702;9.410;2023-06-04T07:49:58;33.00;50.00
5870;DHT22;2961;47.702;9.410;2023-06-04T07:52:26;32.30;50.30
5870;DHT22;2961;47.702;9.410;2023-06-04T07:54:54;32.20;50.70
5870;DHT22;2961;47.702;9.410;2023-06-04T07:57:21;32.60;51.30
5870;DHT22;2961;47.702;9.410;2023-06-04T07:59:48;32.60;48.50
5870;DHT22;2961;47.702;9.410;2023-06-04T08:02:15;32.50;49.30
5870;DHT22;2961;47.702;9.410;2023-06-04T08:04:42;32.50;50.80
5870;DHT22;2961;47.702;9.410;2023-06-04T08:07:09;32.60;49.90
5870;DHT22;2961;47.702;9.410;2023-06-04T08:09:35;32.70;49.90
5870;DHT22;2961;47.702;9.410;2023-06-04T08:12:04;32.70;48.80
5870;DHT22;2961;47.702;9.410;2023-06-04T08:14:32;33.30;49.60
5870;DHT22;2961;47.702;9.410;2023-06-04T08:16:58;34.00;49.30
5870;DHT22;2961;47.702;9.410;2023-06-04T08:19:25;34.30;47.90
5870;DHT22;2961;47.702;9.410;2023-06-04T08:21:52;33.30;49.10
5870;DHT22;2961;47.702;9.410;2023-06-04T08:24:19;33.20;47.20
5870;DHT22;2961;47.702;9.410;2023-06-04T08:26:46;31.90;48.70
5870;DHT22;2961;47.702;9.410;2023-06-04T08:29:15;31.90;48.80
5870;DHT22;2961;47.702;9.410;2023-06-04T08:31:41;31.70;50.60
5870;DHT22;2961;47.702;9.410;2023-06-04T08:34:08;32.10;50.20
5870;DHT22;2961;47.702;9.410;2023-06-04T08:36:35;32.50;51.50
5870;DHT22;2961;47.702;9.410;2023-06-04T08:39:02;32.50;49.90
5870;DHT22;2961;47.702;9.410;2023-06-04T08:41:30;32.30;48.40
5870;DHT22;2961;47.702;9.410;2023-06-04T08:44:03;32.50;48.80
5870;DHT22;2961;47.702;9.410;2023-06-04T08:46:34;32.30;49.90
5870;DHT22;2961;47.702;9.410;2023-06-04T08:49:05;32.00;48.30
5870;DHT22;2961;47.702;9.410;2023-06-04T08:51:33;31.60;49.20
5870;DHT22;2961;47.702;9.410;2023-06-04T08:54:03;31.80;51.10
5870;DHT22;2961;47.702;9.410;2023-06-04T08:56:31;32.10;48.70
5870;DHT22;2961;47.702;9.410;2023-06-04T08:59:01;32.10;51.00
5870;DHT22;2961;47.702;9.410;2023-06-04T09:01:28;31.70;51.30
5870;DHT22;2961;47.702;9.410;2023-06-04T09:03:56;32.00;50.90
5870;DHT22;2961;47.702;9.410;2023-06-04T09:06:25;32.40;50.60
5870;DHT22;2961;47.702;9.410;2023-06-04T09:08:54;32.80;46.80
5870;DHT22;2961;47.702;9.410;2023-06-04T09:11:23;33.20;43.90
5870;DHT22;2961;47.702;9.410;2023-06-04T09:13:51;33.30;45.20
5870;DHT22;2961;47.702;9.410;2023-06-04T09:16:19;33.10;44.50
5870;DHT22;2961;47.702;9.410;2023-06-04T09:18:46;32.70;44.60
5870;DHT22;2961;47.702;9.410;2023-06-04T09:21:14;31.40;49.90
5870;DHT22;2961;47.702;9.410;2023-06-04T09:23:44;31.30;46.20
5870;DHT22;2961;47.702;9.410;2023-06-04T09:26:11;31.60;44.90
5870;DHT22;2961;47.702;9.410;2023-06-04T09:28:40;31.00;43.70
5870;DHT22;2961;47.702;9.410;2023-06-04T09:31:08;31.00;44.80
5870;DHT22;2961;47.702;9.410;2023-06-04T09:33:42;31.00;45.40
5870;DHT22;2961;47.702;9.410;2023-06-04T09:36:10;30.50;45.10
5870;DHT22;2961;47.702;9.410;2023-06-04T09:38:38;30.60;45.50
5870;DHT22;2961;47.702;9.410;2023-06-04T09:41:10;30.80;44.30
5870;DHT22;2961;47.702;9.410;2023-06-04T09:43:37;30.60;43.90
5870;DHT22;2961;47.702;9.410;2023-06-04T09:46:11;30.10;45.70
5870;DHT22;2961;47.702;9.410;2023-06-04T09:48:38;30.10;44.80
5870;DHT22;2961;47.702;9.410;2023-06-04T09:51:09;30.00;45.80
5870;DHT22;2961;47.702;9.410;2023-06-04T09:53:38;30.50;44.30
5870;DHT22;2961;47.702;9.410;2023-06-04T09:56:06;30.80;42.50
5870;DHT22;2961;47.702;9.410;2023-06-04T09:58:33;30.80;43.80
5870;DHT22;2961;47.702;9.410;2023-06-04T10:01:03;30.80;44.00
5870;DHT22;2961;47.702;9.410;2023-06-04T10:03:31;30.30;44.40
5870;DHT22;2961;47.702;9.410;2023-06-04T10:06:00;29.80;44.60
5870;DHT22;2961;47.702;9.410;2023-06-04T10:08:27;29.50;45.00
5870;DHT22;2961;47.702;9.410;2023-06-04T10:10:59;29.40;45.80
5870;DHT22;2961;47.702;9.410;2023-06-04T10:13:28;29.30;44.90
5870;DHT22;2961;47.702;9.410;2023-06-04T10:15:57;29.20;44.20
5870;DHT22;2961;47.702;9.410;2023-06-04T10:18:26;28.90;46.00
5870;DHT22;2961;47.702;9.410;2023-06-04T10:20:55;28.50;45.70
5870;DHT22;2961;47.702;9.410;2023-06-04T10:23:22;28.10;47.60
5870;DHT22;2961;47.702;9.410;2023-06-04T10:25:50;28.00;45.30
5870;DHT22;2961;47.702;9.410;2023-06-04T10:28:20;27.70;46.60
5870;DHT22;2961;47.702;9.410;2023-06-04T10:30:47;27.50;45.80
5870;DHT22;2961;47.702;9.410;2023-06-04T10:33:17;27.20;48.00
5870;DHT22;2961;47.702;9.410;2023-06-04T10:35:45;27.20;47.00
5870;DHT22;2961;47.702;9.410;2023-06-04T10:38:13;26.80;48.60
5870;DHT22;2961;47.702;9.410;2023-06-04T10:40:42;26.20;48.80
5870;DHT22;2961;47.702;9.410;2023-06-04T10:43:10;26.00;50.50
5870;DHT22;2961;47.702;9.410;2023-06-04T10:45:39;26.00;51.30
5870;DHT22;2961;47.702;9.410;2023-06-04T10:48:07;25.90;52.00
5870;DHT22;2961;47.702;9.410;2023-06-04T10:50:46;25.50;50.50
5870;DHT22;2961;47.702;9.410;2023-06-04T10:53:13;25.40;53.40
5870;DHT22;2961;47.702;9.410;2023-06-04T10:55:43;25.50;52.50
5870;DHT22;2961;47.702;9.410;2023-06-04T10:58:10;25.80;51.50
5870;DHT22;2961;47.702;9.410;2023-06-04T11:00:40;26.10;49.50
5870;DHT22;2961;47.702;9.410;2023-06-04T11:03:09;26.30;53.90
5870;DHT22;2961;47.702;9.410;2023-06-04T11:05:36;26.20;51.80
5870;DHT22;2961;47.702;9.410;2023-06-04T11:08:04;26.10;51.40
5870;DHT22;2961;47.702;9.410;2023-06-04T11:10:32;26.20;53.10
5870;DHT22;2961;47.702;9.410;2023-06-04T11:12:59;26.30;53.30
5870;DHT22;2961;47.702;9.410;2023-06-04T11:15:26;26.40;52.20
5870;DHT22;2961;47.702;9.410;2023-06-04T11:17:55;26.30;50.50
5870;DHT22;2961;47.702;9.410;2023-06-04T11:20:23;26.20;52.30
5870;DHT22;2961;47.702;9.410;2023-06-04T11:22:54;26.20;50.60
5870;DHT22;2961;47.702;9.410;2023-06-04T11:25:22;26.40;51.30
5870;DHT22;2961;47.702;9.410;2023-06-04T11:27:53;26.40;53.20
5870;DHT22;2961;47.702;9.410;2023-06-04T11:30:21;26.60;51.30
5870;DHT22;2961;47.702;9.410;2023-06-04T11:32:49;26.50;50.60
5870;DHT22;2961;47.702;9.410;2023-06-04T11:35:17;26.20;53.40
5870;DHT22;2961;47.702;9.410;2023-06-04T11:37:53;25.90;53.10
5870;DHT22;2961;47.702;9.410;2023-06-04T11:40:20;25.90;53.10
5870;DHT22;2961;47.702;9.410;2023-06-04T11:42:47;25.80;53.10
5870;DHT22;2961;47.702;9.410;2023-06-04T11:45:16;25.80;53.10
5870;DHT22;2961;47.702;9.410;2023-06-04T11:47:45;26.00;53.40
5870;DHT22;2961;47.702;9.410;2023-06-04T11:50:12;26.10;52.70
5870;DHT22;2961;47.702;9.410;2023-06-04T11:52:40;26.20;51.00
5870;DHT22;2961;47.702;9.410;2023-06-04T11:55:09;26.50;53.10
5870;DHT22;2961;47.702;9.410;2023-06-04T11:57:36;26.50;50.50
5870;DHT22;2961;47.702;9.410;2023-06-04T12:00:04;26.30;52.50
5870;DHT22;2961;47.702;9.410;2023-06-04T12:02:34;26.10;52.10
5870;DHT22;2961;47.702;9.410;2023-06-04T12:05:11;26.30;52.90
5870;DHT22;2961;47.702;9.410;2023-06-04T12:07:39;26.70;52.20
5870;DHT22;2961;47.702;9.410;2023-06-04T12:10:07;26.40;50.90
5870;DHT22;2961;47.702;9.410;2023-06-04T12:12:34;26.10;51.60
5870;DHT22;2961;47.702;9.410;2023-06-04T12:15:01;25.80;53.10
5870;DHT22;2961;47.702;9.410;2023-06-04T12:17:31;25.80;53.20
5870;DHT22;2961;47.702;9.410;2023-06-04T12:19:57;25.90;53.70
5870;DHT22;2961;47.702;9.410;2023-06-04T12:22:25;26.10;54.30
5870;DHT22;2961;47.702;9.410;2023-06-04T12:24:54;25.90;51.70
5870;DHT22;2961;47.702;9.410;2023-06-04T12:27:22;25.80;52.60
5870;DHT22;2961;47.702;9.410;2023-06-04T12:29:56;25.80;52.50
5870;DHT22;2961;47.702;9.410;2023-06-04T12:32:23;25.80;52.60
5870;DHT22;2961;47.702;9.410;2023-06-04T12:34:51;25.80;52.30
5870;DHT22;2961;47.702;9.410;2023-06-04T12:37:18;25.80;53.10
5870;DHT22;2961;47.702;9.410;2023-06-04T12:39:45;25.80;52.80
5870;DHT22;2961;47.702;9.410;2023-06-04T12:42:13;26.10;54.90
5870;DHT22;2961;47.702;9.410;2023-06-04T12:44:41;26.10;52.20
5870;DHT22;2961;47.702;9.410;2023-06-04T12:47:08;26.10;52.60
5870;DHT22;2961;47.702;9.410;2023-06-04T12:49:35;26.10;51.00
5870;DHT22;2961;47.702;9.410;2023-06-04T12:52:01;26.20;50.70
5870;DHT22;2961;47.702;9.410;2023-06-04T12:54:28;26.20;53.40
5870;DHT22;2961;47.702;9.410;2023-06-04T12:56:56;26.30;49.70
5870;DHT22;2961;47.702;9.410;2023-06-04T12:59:24;26.20;51.10
5870;DHT22;2961;47.702;9.410;2023-06-04T13:01:51;26.20;50.80
5870;DHT22;2961;47.702;9.410;2023-06-04T13:04:18;26.10;49.60
5870;DHT22;2961;47.702;9.410;2023-06-04T13:06:45;26.10;51.90
5870;DHT22;2961;47.702;9.410;2023-06-04T13:09:12;26.20;50.50
5870;DHT22;2961;47.702;9.410;2023-06-04T13:11:41;26.10;52.00
5870;DHT22;2961;47.702;9.410;2023-06-04T13:14:08;26.10;51.80
5870;DHT22;2961;47.702;9.410;2023-06-04T13:16:38;25.80;51.50
5870;DHT22;2961;47.702;9.410;2023-06-04T13:19:05;25.50;50.40
5870;DHT22;2961;47.702;9.410;2023-06-04T13:21:32;25.30;50.20
5870;DHT22;2961;47.702;9.410;2023-06-04T13:23:59;25.10;50.30
5870;DHT22;2961;47.702;9.410;2023-06-04T13:26:26;25.30;53.30
5870;DHT22;2961;47.702;9.410;2023-06-04T13:28:52;25.60;52.50
5870;DHT22;2961;47.702;9.410;2023-06-04T13:31:19;25.40;51.00
5870;DHT22;2961;47.702;9.410;2023-06-04T13:33:47;25.30;51.40
5870;DHT22;2961;47.702;9.410;2023-06-04T13:36:14;25.10;51.10
5870;DHT22;2961;47.702;9.410;2023-06-04T13:38:41;25.10;50.80
5870;DHT22;2961;47.702;9.410;2023-06-04T13:41:08;25.10;52.00
5870;DHT22;2961;47.702;9.410;2023-06-04T13:43:35;25.20;50.60
5870;DHT22;2961;47.702;9.410;2023-06-04T13:46:03;25.40;51.80
5870;DHT22;2961;47.702;9.410;2023-06-04T13:48:31;25.60;51.00
5870;DHT22;2961;47.702;9.410;2023-06-04T13:50:59;25.90;51.50
5870;DHT22;2961;47.702;9.410;2023-06-04T13:53:25;26.10;50.20
5870;DHT22;2961;47.702;9.410;2023-06-04T13:55:52;26.10;51.10
5870;DHT22;2961;47.702;9.410;2023-06-04T13:58:23;26.00;50.00
5870;DHT22;2961;47.702;9.410;2023-06-04T14:00:50;25.80;50.00
5870;DHT22;2961;47.702;9.410;2023-06-04T14:03:17;25.80;51.70
5870;DHT22;2961;47.702;9.410;2023-06-04T14:05:44;25.70;49.60
5870;DHT22;2961;47.702;9.410;2023-06-04T14:08:12;25.70;49.20
5870;DHT22;2961;47.702;9.410;2023-06-04T14:10:39;25.80;52.40
5870;DHT22;2961;47.702;9.410;2023-06-04T14:13:08;25.70;50.60
5870;DHT22;2961;47.702;9.410;2023-06-04T14:15:35;25.80;50.30
5870;DHT22;2961;47.702;9.410;2023-06-04T14:18:02;25.80;50.80
5870;DHT22;2961;47.702;9.410;2023-06-04T14:20:29;25.80;50.40
5870;DHT22;2961;47.702;9.410;2023-06-04T14:22:56;25.80;49.50
5870;DHT22;2961;47.702;9.410;2023-06-04T14:25:24;25.70;50.30
5870;DHT22;2961;47.702;9.410;2023-06-04T14:27:51;25.70;50.20
5870;DHT22;2961;47.702;9.410;2023-06-04T14:30:18;25.80;51.10
5870;DHT22;2961;47.702;9.410;2023-06-04T14:32:44;25.90;51.90
5870;DHT22;2961;47.702;9.410;2023-06-04T14:35:11;25.90;50.70
5870;DHT22;2961;47.702;9.410;2023-06-04T14:37:38;25.80;51.70
5870;DHT22;2961;47.702;9.410;2023-06-04T14:40:06;25.90;51.70
5870;DHT22;2961;47.702;9.410;2023-06-04T14:42:34;25.90;50.10
5870;DHT22;2961;47.702;9.410;2023-06-04T14:45:02;25.90;49.50
5870;DHT22;2961;47.702;9.410;2023-06-04T14:47:29;25.80;48.40
5870;DHT22;2961;47.702;9.410;2023-06-04T14:49:55;25.70;50.70
5870;DHT22;2961;47.702;9.410;2023-06-04T14:52:22;25.70;50.30
5870;DHT22;2961;47.702;9.410;2023-06-04T14:54:49;25.60;50.30
5870;DHT22;2961;47.702;9.410;2023-06-04T14:57:16;25.50;50.80
5870;DHT22;2961;47.702;9.410;2023-06-04T14:59:47;25.60;49.70
5870;DHT22;2961;47.702;9.410;2023-06-04T15:02:14;25.60;49.80
5870;DHT22;2961;47.702;9.410;2023-06-04T15:04:45;25.60;50.00
5870;DHT22;2961;47.702;9.410;2023-06-04T15:07:11;25.50;50.90
5870;DHT22;2961;47.702;9.410;2023-06-04T15:09:38;25.40;51.00
5870;DHT22;2961;47.702;9.410;2023-06-04T15:12:05;25.20;52.60
5870;DHT22;2961;47.702;9.410;2023-06-04T15:14:32;25.20;52.40
5870;DHT22;2961;47.702;9.410;2023-06-04T15:17:00;25.20;51.00
5870;DHT22;2961;47.702;9.410;2023-06-04T15:19:27;25.30;49.30
5870;DHT22;2961;47.702;9.410;2023-06-04T15:21:53;25.30;50.80
5870;DHT22;2961;47.702;9.410;2023-06-04T15:24:20;25.40;51.00
5870;DHT22;2961;47.702;9.410;2023-06-04T15:26:47;25.40;50.90
5870;DHT22;2961;47.702;9.410;2023-06-04T15:29:14;25.30;50.10
5870;DHT22;2961;47.702;9.410;2023-06-04T15:31:41;25.20;50.20
5870;DHT22;2961;47.702;9.410;2023-06-04T15:34:09;25.10;51.20
5870;DHT22;2961;47.702;9.410;2023-06-04T15:36:36;24.80;50.60
5870;DHT22;2961;47.702;9.410;2023-06-04T15:39:03;24.80;51.50
5870;DHT22;2961;47.702;9.410;2023-06-04T15:41:30;24.70;51.20
5870;DHT22;2961;47.702;9.410;2023-06-04T15:43:57;24.70;52.00
5870;DHT22;2961;47.702;9.410;2023-06-04T15:46:24;24.80;52.60
5870;DHT22;2961;47.702;9.410;2023-06-04T15:48:51;24.60;51.50
5870;DHT22;2961;47.702;9.410;2023-06-04T15:51:19;24.70;51.90
5870;DHT22;2961;47.702;9.410;2023-06-04T15:53:46;24.70;51.80
5870;DHT22;2961;47.702;9.410;2023-06-04T15:56:13;24.80;50.40
5870;DHT22;2961;47.702;9.410;2023-06-04T15:58:41;24.80;51.40
5870;DHT22;2961;47.702;9.410;2023-06-04T16:01:08;24.90;52.20
5870;DHT22;2961;47.702;9.410;2023-06-04T16:03:35;25.00;51.70
5870;DHT22;2961;47.702;9.410;2023-06-04T16:06:02;24.90;51.70